Main page
METAR-TAF:

METAR-TAF

Airports :

Inverness, Scotland

Inverness Airport

latitude: 57-32N, longitude: 004-03W, elevation: 9 m

Current weather observation

The report was made 44 minutes ago, at 01:50 UTC
Wind 3 kt from variable directions
Temperature 13°C
Humidity 94%
Pressure 1019 hPa
Visibility: 7000 m

METAR: EGPE 240150Z AUTO VRB03KT 7000 SCT011/// BKN017/// 13/12 Q1019

Time: 03:34 (02:34 UTC)

Forecast

The report was made 3 hours and 31 minutes ago, at 23:03 UTC
Forecast valid from 24 at 00 UTC to 24 at 09 UTC
Wind 7 kt from the Northeast
Visibility 10 km or more
Scattered clouds at a height of 500 ft
Broken clouds at a height of 1200 ft
Temporary
from 24 at 00 UTC to 24 at 03 UTC
Visibility: 3000 m
Broken clouds at a height of 300 ft
mist, light drizzle
Becoming
from 24 at 02 UTC to 24 at 05 UTC
Scattered clouds at a height of 1800 ft

TAF: EGPE 232303Z 2400/2409 04007KT 9999 SCT005 BKN012 TEMPO 2400/2403 3000 BR -DZ BKN003 BECMG 2402/2405 SCT018

Weather observations and forecasts of more than 4000 airports (METAR and TAF reports).

The available stations are represented by yellow and red dots on the map.

Hover mouse over dot to see the name of the station.

Then click to see weather observations and forecasts.

To change the map : click on the green buttons with a black cross to zoom in, on the green button with a dash to zoom out, or on the green arrows for adjacent maps.


METAR-TAF: